sensor_id;sensor_type;location;lat;lon;timestamp;P1;durP1;ratioP1;P2;durP2;ratioP2
15555;SDS011;7879;48.660;9.116;2023-03-01T00:01:03;0.40;;;0.40;;
15555;SDS011;7879;48.660;9.116;2023-03-01T00:03:31;0.40;;;0.40;;
15555;SDS011;7879;48.660;9.116;2023-03-01T00:05:58;0.45;;;0.45;;
15555;SDS011;7879;48.660;9.116;2023-03-01T00:08:26;0.30;;;0.30;;
15555;SDS011;7879;48.660;9.116;2023-03-01T00:11:13;0.30;;;0.30;;
15555;SDS011;7879;48.660;9.116;2023-03-01T00:13:41;0.30;;;0.30;;
15555;SDS011;7879;48.660;9.116;2023-03-01T00:16:15;0.40;;;0.40;;
15555;SDS011;7879;48.660;9.116;2023-03-01T00:18:44;0.40;;;0.40;;
15555;SDS011;7879;48.660;9.116;2023-03-01T00:21:11;0.40;;;0.40;;
15555;SDS011;7879;48.660;9.116;2023-03-01T00:23:39;0.40;;;0.40;;
15555;SDS011;7879;48.660;9.116;2023-03-01T00:26:07;0.30;;;0.30;;
15555;SDS011;7879;48.660;9.116;2023-03-01T00:28:36;0.30;;;0.30;;
15555;SDS011;7879;48.660;9.116;2023-03-01T00:31:07;0.50;;;0.50;;
15555;SDS011;7879;48.660;9.116;2023-03-01T00:33:35;0.30;;;0.30;;
15555;SDS011;7879;48.660;9.116;2023-03-01T00:36:03;0.30;;;0.30;;
15555;SDS011;7879;48.660;9.116;2023-03-01T00:38:30;0.40;;;0.40;;
15555;SDS011;7879;48.660;9.116;2023-03-01T00:41:04;0.40;;;0.40;;
15555;SDS011;7879;48.660;9.116;2023-03-01T00:43:36;0.40;;;0.40;;
15555;SDS011;7879;48.660;9.116;2023-03-01T00:46:07;0.50;;;0.50;;
15555;SDS011;7879;48.660;9.116;2023-03-01T00:48:36;0.30;;;0.30;;
15555;SDS011;7879;48.660;9.116;2023-03-01T00:51:13;0.30;;;0.30;;
15555;SDS011;7879;48.660;9.116;2023-03-01T00:53:52;0.40;;;0.40;;
15555;SDS011;7879;48.660;9.116;2023-03-01T00:56:20;0.40;;;0.40;;
15555;SDS011;7879;48.660;9.116;2023-03-01T00:58:47;0.45;;;0.45;;
15555;SDS011;7879;48.660;9.116;2023-03-01T01:01:16;0.50;;;0.50;;
15555;SDS011;7879;48.660;9.116;2023-03-01T01:03:48;0.30;;;0.30;;
15555;SDS011;7879;48.660;9.116;2023-03-01T01:06:22;0.40;;;0.40;;
15555;SDS011;7879;48.660;9.116;2023-03-01T01:08:52;0.40;;;0.40;;
15555;SDS011;7879;48.660;9.116;2023-03-01T01:11:19;0.43;;;0.43;;
15555;SDS011;7879;48.660;9.116;2023-03-01T01:13:47;0.40;;;0.40;;
15555;SDS011;7879;48.660;9.116;2023-03-01T01:16:15;0.30;;;0.30;;
15555;SDS011;7879;48.660;9.116;2023-03-01T01:18:43;0.40;;;0.40;;
15555;SDS011;7879;48.660;9.116;2023-03-01T01:21:12;0.40;;;0.40;;
15555;SDS011;7879;48.660;9.116;2023-03-01T01:23:41;0.50;;;0.50;;
15555;SDS011;7879;48.660;9.116;2023-03-01T01:26:10;0.30;;;0.30;;
15555;SDS011;7879;48.660;9.116;2023-03-01T01:28:42;0.38;;;0.38;;
15555;SDS011;7879;48.660;9.116;2023-03-01T01:31:09;0.40;;;0.40;;
15555;SDS011;7879;48.660;9.116;2023-03-01T01:33:36;0.50;;;0.50;;
15555;SDS011;7879;48.660;9.116;2023-03-01T01:36:06;0.30;;;0.30;;
15555;SDS011;7879;48.660;9.116;2023-03-01T01:38:34;0.40;;;0.40;;
15555;SDS011;7879;48.660;9.116;2023-03-01T01:41:02;0.40;;;0.40;;
15555;SDS011;7879;48.660;9.116;2023-03-01T01:43:31;0.40;;;0.40;;
15555;SDS011;7879;48.660;9.116;2023-03-01T01:46:04;0.50;;;0.50;;
15555;SDS011;7879;48.660;9.116;2023-03-01T01:48:41;0.32;;;0.32;;
15555;SDS011;7879;48.660;9.116;2023-03-01T01:51:13;0.30;;;0.30;;
15555;SDS011;7879;48.660;9.116;2023-03-01T01:53:49;0.40;;;0.40;;
15555;SDS011;7879;48.660;9.116;2023-03-01T01:56:21;0.40;;;0.40;;
15555;SDS011;7879;48.660;9.116;2023-03-01T01:58:51;0.40;;;0.40;;
15555;SDS011;7879;48.660;9.116;2023-03-01T02:01:19;0.35;;;0.35;;
15555;SDS011;7879;48.660;9.116;2023-03-01T02:03:46;0.30;;;0.30;;
15555;SDS011;7879;48.660;9.116;2023-03-01T02:06:33;0.40;;;0.40;;
15555;SDS011;7879;48.660;9.116;2023-03-01T02:09:11;0.40;;;0.40;;
15555;SDS011;7879;48.660;9.116;2023-03-01T02:11:39;0.40;;;0.40;;
15555;SDS011;7879;48.660;9.116;2023-03-01T02:14:07;0.50;;;0.50;;
15555;SDS011;7879;48.660;9.116;2023-03-01T02:16:34;0.30;;;0.30;;
15555;SDS011;7879;48.660;9.116;2023-03-01T02:19:01;0.30;;;0.30;;
15555;SDS011;7879;48.660;9.116;2023-03-01T02:21:39;0.40;;;0.40;;
15555;SDS011;7879;48.660;9.116;2023-03-01T02:26:53;0.30;;;0.30;;
15555;SDS011;7879;48.660;9.116;2023-03-01T02:29:24;0.30;;;0.30;;
15555;SDS011;7879;48.660;9.116;2023-03-01T02:31:53;0.40;;;0.40;;
15555;SDS011;7879;48.660;9.116;2023-03-01T02:34:23;0.40;;;0.40;;
15555;SDS011;7879;48.660;9.116;2023-03-01T02:36:53;0.40;;;0.40;;
15555;SDS011;7879;48.660;9.116;2023-03-01T02:39:27;0.30;;;0.30;;
15555;SDS011;7879;48.660;9.116;2023-03-01T02:41:57;0.30;;;0.30;;
15555;SDS011;7879;48.660;9.116;2023-03-01T02:44:26;0.30;;;0.30;;
15555;SDS011;7879;48.660;9.116;2023-03-01T02:46:53;0.40;;;0.40;;
15555;SDS011;7879;48.660;9.116;2023-03-01T02:49:27;0.40;;;0.40;;
15555;SDS011;7879;48.660;9.116;2023-03-01T02:52:04;0.40;;;0.40;;
15555;SDS011;7879;48.660;9.116;2023-03-01T02:54:53;0.40;;;0.40;;
15555;SDS011;7879;48.660;9.116;2023-03-01T02:57:31;0.40;;;0.40;;
15555;SDS011;7879;48.660;9.116;2023-03-01T03:00:02;0.30;;;0.30;;
15555;SDS011;7879;48.660;9.116;2023-03-01T03:02:33;0.30;;;0.30;;
15555;SDS011;7879;48.660;9.116;2023-03-01T03:05:11;0.30;;;0.30;;
15555;SDS011;7879;48.660;9.116;2023-03-01T03:07:44;0.30;;;0.30;;
15555;SDS011;7879;48.660;9.116;2023-03-01T03:10:13;0.40;;;0.40;;
15555;SDS011;7879;48.660;9.116;2023-03-01T03:12:49;0.40;;;0.40;;
15555;SDS011;7879;48.660;9.116;2023-03-01T03:15:17;0.40;;;0.40;;
15555;SDS011;7879;48.660;9.116;2023-03-01T03:17:46;0.40;;;0.40;;
15555;SDS011;7879;48.660;9.116;2023-03-01T03:20:14;0.40;;;0.40;;
15555;SDS011;7879;48.660;9.116;2023-03-01T03:22:48;0.40;;;0.40;;
15555;SDS011;7879;48.660;9.116;2023-03-01T03:25:18;0.30;;;0.30;;
15555;SDS011;7879;48.660;9.116;2023-03-01T03:27:46;0.30;;;0.30;;
15555;SDS011;7879;48.660;9.116;2023-03-01T03:30:15;0.30;;;0.30;;
15555;SDS011;7879;48.660;9.116;2023-03-01T03:32:45;0.40;;;0.40;;
15555;SDS011;7879;48.660;9.116;2023-03-01T03:35:29;0.40;;;0.40;;
15555;SDS011;7879;48.660;9.116;2023-03-01T03:37:59;0.40;;;0.40;;
15555;SDS011;7879;48.660;9.116;2023-03-01T03:40:36;0.50;;;0.50;;
15555;SDS011;7879;48.660;9.116;2023-03-01T03:43:05;0.30;;;0.30;;
15555;SDS011;7879;48.660;9.116;2023-03-01T03:45:35;0.30;;;0.30;;
15555;SDS011;7879;48.660;9.116;2023-03-01T03:48:02;0.30;;;0.30;;
15555;SDS011;7879;48.660;9.116;2023-03-01T03:50:31;0.40;;;0.40;;
15555;SDS011;7879;48.660;9.116;2023-03-01T03:53:02;0.40;;;0.40;;
15555;SDS011;7879;48.660;9.116;2023-03-01T03:55:31;0.40;;;0.40;;
15555;SDS011;7879;48.660;9.116;2023-03-01T03:58:00;0.40;;;0.40;;
15555;SDS011;7879;48.660;9.116;2023-03-01T04:00:33;0.30;;;0.30;;
15555;SDS011;7879;48.660;9.116;2023-03-01T04:03:01;0.30;;;0.30;;
15555;SDS011;7879;48.660;9.116;2023-03-01T04:05:29;0.30;;;0.30;;
15555;SDS011;7879;48.660;9.116;2023-03-01T04:07:56;0.40;;;0.40;;
15555;SDS011;7879;48.660;9.116;2023-03-01T04:10:35;0.40;;;0.40;;
15555;SDS011;7879;48.660;9.116;2023-03-01T04:13:07;0.40;;;0.40;;
15555;SDS011;7879;48.660;9.116;2023-03-01T04:15:36;0.40;;;0.40;;
15555;SDS011;7879;48.660;9.116;2023-03-01T04:18:03;0.40;;;0.40;;
15555;SDS011;7879;48.660;9.116;2023-03-01T04:20:32;0.30;;;0.30;;
15555;SDS011;7879;48.660;9.116;2023-03-01T04:23:02;0.30;;;0.30;;
15555;SDS011;7879;48.660;9.116;2023-03-01T04:25:40;0.30;;;0.30;;
15555;SDS011;7879;48.660;9.116;2023-03-01T04:28:08;0.30;;;0.30;;
15555;SDS011;7879;48.660;9.116;2023-03-01T04:30:36;0.40;;;0.40;;
15555;SDS011;7879;48.660;9.116;2023-03-01T04:33:05;0.40;;;0.40;;
15555;SDS011;7879;48.660;9.116;2023-03-01T04:35:32;0.40;;;0.40;;
15555;SDS011;7879;48.660;9.116;2023-03-01T04:38:00;0.40;;;0.40;;
15555;SDS011;7879;48.660;9.116;2023-03-01T04:40:28;0.35;;;0.35;;
15555;SDS011;7879;48.660;9.116;2023-03-01T04:42:55;0.30;;;0.30;;
15555;SDS011;7879;48.660;9.116;2023-03-01T04:45:21;0.30;;;0.30;;
15555;SDS011;7879;48.660;9.116;2023-03-01T04:47:48;0.40;;;0.40;;
15555;SDS011;7879;48.660;9.116;2023-03-01T04:50:15;0.40;;;0.40;;
15555;SDS011;7879;48.660;9.116;2023-03-01T04:52:43;0.40;;;0.40;;
15555;SDS011;7879;48.660;9.116;2023-03-01T04:55:10;0.40;;;0.40;;
15555;SDS011;7879;48.660;9.116;2023-03-01T04:57:37;0.40;;;0.40;;
15555;SDS011;7879;48.660;9.116;2023-03-01T05:00:05;0.30;;;0.30;;
15555;SDS011;7879;48.660;9.116;2023-03-01T05:02:47;0.30;;;0.30;;
15555;SDS011;7879;48.660;9.116;2023-03-01T05:05:14;0.30;;;0.30;;
15555;SDS011;7879;48.660;9.116;2023-03-01T05:07:41;0.30;;;0.30;;
15555;SDS011;7879;48.660;9.116;2023-03-01T05:10:08;0.40;;;0.40;;
15555;SDS011;7879;48.660;9.116;2023-03-01T05:12:35;0.40;;;0.40;;
15555;SDS011;7879;48.660;9.116;2023-03-01T05:15:04;0.40;;;0.40;;
15555;SDS011;7879;48.660;9.116;2023-03-01T05:17:34;0.50;;;0.50;;
15555;SDS011;7879;48.660;9.116;2023-03-01T05:20:01;0.30;;;0.30;;
15555;SDS011;7879;48.660;9.116;2023-03-01T05:22:33;0.30;;;0.30;;
15555;SDS011;7879;48.660;9.116;2023-03-01T05:24:59;0.30;;;0.30;;
15555;SDS011;7879;48.660;9.116;2023-03-01T05:27:26;0.30;;;0.30;;
15555;SDS011;7879;48.660;9.116;2023-03-01T05:29:53;0.40;;;0.40;;
15555;SDS011;7879;48.660;9.116;2023-03-01T05:32:20;0.40;;;0.40;;
15555;SDS011;7879;48.660;9.116;2023-03-01T05:34:47;0.40;;;0.40;;
15555;SDS011;7879;48.660;9.116;2023-03-01T05:37:14;0.40;;;0.40;;
15555;SDS011;7879;48.660;9.116;2023-03-01T05:42:10;0.35;;;0.35;;
15555;SDS011;7879;48.660;9.116;2023-03-01T05:44:37;0.30;;;0.30;;
15555;SDS011;7879;48.660;9.116;2023-03-01T05:47:04;0.30;;;0.30;;
15555;SDS011;7879;48.660;9.116;2023-03-01T05:49:31;0.30;;;0.30;;
15555;SDS011;7879;48.660;9.116;2023-03-01T05:51:58;0.40;;;0.40;;
15555;SDS011;7879;48.660;9.116;2023-03-01T05:54:25;0.40;;;0.40;;
15555;SDS011;7879;48.660;9.116;2023-03-01T05:56:51;0.40;;;0.40;;
15555;SDS011;7879;48.660;9.116;2023-03-01T05:59:19;0.40;;;0.40;;
15555;SDS011;7879;48.660;9.116;2023-03-01T06:01:45;0.30;;;0.30;;
15555;SDS011;7879;48.660;9.116;2023-03-01T06:04:12;0.30;;;0.30;;
15555;SDS011;7879;48.660;9.116;2023-03-01T06:06:39;0.30;;;0.30;;
15555;SDS011;7879;48.660;9.116;2023-03-01T06:09:06;0.30;;;0.30;;
15555;SDS011;7879;48.660;9.116;2023-03-01T06:11:35;0.30;;;0.30;;
15555;SDS011;7879;48.660;9.116;2023-03-01T06:14:02;0.30;;;0.30;;
15555;SDS011;7879;48.660;9.116;2023-03-01T06:16:30;0.40;;;0.40;;
15555;SDS011;7879;48.660;9.116;2023-03-01T06:18:57;0.40;;;0.40;;
15555;SDS011;7879;48.660;9.116;2023-03-01T06:21:24;0.40;;;0.40;;
15555;SDS011;7879;48.660;9.116;2023-03-01T06:23:51;0.40;;;0.40;;
15555;SDS011;7879;48.660;9.116;2023-03-01T06:26:18;0.32;;;0.32;;
15555;SDS011;7879;48.660;9.116;2023-03-01T06:28:45;0.30;;;0.30;;
15555;SDS011;7879;48.660;9.116;2023-03-01T06:31:12;0.30;;;0.30;;
15555;SDS011;7879;48.660;9.116;2023-03-01T06:33:39;0.30;;;0.30;;
15555;SDS011;7879;48.660;9.116;2023-03-01T06:36:06;0.30;;;0.30;;
15555;SDS011;7879;48.660;9.116;2023-03-01T06:38:34;0.40;;;0.40;;
15555;SDS011;7879;48.660;9.116;2023-03-01T06:41:01;0.40;;;0.40;;
15555;SDS011;7879;48.660;9.116;2023-03-01T06:43:28;0.40;;;0.40;;
15555;SDS011;7879;48.660;9.116;2023-03-01T06:45:55;0.50;;;0.50;;
15555;SDS011;7879;48.660;9.116;2023-03-01T06:48:21;0.40;;;0.40;;
15555;SDS011;7879;48.660;9.116;2023-03-01T06:50:48;0.30;;;0.30;;
15555;SDS011;7879;48.660;9.116;2023-03-01T06:53:15;0.30;;;0.30;;
15555;SDS011;7879;48.660;9.116;2023-03-01T06:55:42;0.30;;;0.30;;
15555;SDS011;7879;48.660;9.116;2023-03-01T06:58:09;0.30;;;0.30;;
15555;SDS011;7879;48.660;9.116;2023-03-01T07:00:36;0.40;;;0.40;;
15555;SDS011;7879;48.660;9.116;2023-03-01T07:03:06;0.40;;;0.40;;
15555;SDS011;7879;48.660;9.116;2023-03-01T07:05:33;0.40;;;0.40;;
15555;SDS011;7879;48.660;9.116;2023-03-01T07:07:59;0.40;;;0.40;;
15555;SDS011;7879;48.660;9.116;2023-03-01T07:10:26;0.43;;;0.43;;
15555;SDS011;7879;48.660;9.116;2023-03-01T07:12:56;0.40;;;0.40;;
15555;SDS011;7879;48.660;9.116;2023-03-01T07:15:24;0.30;;;0.30;;
15555;SDS011;7879;48.660;9.116;2023-03-01T07:17:51;0.30;;;0.30;;
15555;SDS011;7879;48.660;9.116;2023-03-01T07:20:19;0.30;;;0.30;;
15555;SDS011;7879;48.660;9.116;2023-03-01T07:22:51;0.30;;;0.30;;
15555;SDS011;7879;48.660;9.116;2023-03-01T07:25:18;0.30;;;0.30;;
15555;SDS011;7879;48.660;9.116;2023-03-01T07:27:49;0.40;;;0.40;;
15555;SDS011;7879;48.660;9.116;2023-03-01T07:30:17;0.40;;;0.40;;
15555;SDS011;7879;48.660;9.116;2023-03-01T07:32:45;0.40;;;0.40;;
15555;SDS011;7879;48.660;9.116;2023-03-01T07:35:12;0.40;;;0.40;;
15555;SDS011;7879;48.660;9.116;2023-03-01T07:37:39;0.30;;;0.30;;
15555;SDS011;7879;48.660;9.116;2023-03-01T07:40:06;0.30;;;0.30;;
15555;SDS011;7879;48.660;9.116;2023-03-01T07:42:33;0.30;;;0.30;;
15555;SDS011;7879;48.660;9.116;2023-03-01T07:45:00;0.30;;;0.30;;
15555;SDS011;7879;48.660;9.116;2023-03-01T07:47:27;0.30;;;0.30;;
15555;SDS011;7879;48.660;9.116;2023-03-01T07:49:53;0.40;;;0.40;;
15555;SDS011;7879;48.660;9.116;2023-03-01T07:52:20;0.40;;;0.40;;
15555;SDS011;7879;48.660;9.116;2023-03-01T07:54:47;0.40;;;0.40;;
15555;SDS011;7879;48.660;9.116;2023-03-01T07:57:14;0.40;;;0.40;;
15555;SDS011;7879;48.660;9.116;2023-03-01T07:59:40;0.40;;;0.40;;
15555;SDS011;7879;48.660;9.116;2023-03-01T08:02:08;0.30;;;0.30;;
15555;SDS011;7879;48.660;9.116;2023-03-01T08:04:36;0.30;;;0.30;;
15555;SDS011;7879;48.660;9.116;2023-03-01T08:07:04;0.30;;;0.30;;
15555;SDS011;7879;48.660;9.116;2023-03-01T08:09:31;0.30;;;0.30;;
15555;SDS011;7879;48.660;9.116;2023-03-01T08:12:01;0.30;;;0.30;;
15555;SDS011;7879;48.660;9.116;2023-03-01T08:14:29;0.30;;;0.30;;
15555;SDS011;7879;48.660;9.116;2023-03-01T08:16:56;0.30;;;0.30;;
15555;SDS011;7879;48.660;9.116;2023-03-01T08:19:22;0.40;;;0.40;;
15555;SDS011;7879;48.660;9.116;2023-03-01T08:21:49;0.30;;;0.30;;
15555;SDS011;7879;48.660;9.116;2023-03-01T08:24:16;0.40;;;0.40;;
15555;SDS011;7879;48.660;9.116;2023-03-01T08:26:43;0.35;;;0.35;;
15555;SDS011;7879;48.660;9.116;2023-03-01T08:29:10;0.30;;;0.30;;
15555;SDS011;7879;48.660;9.116;2023-03-01T08:31:38;0.30;;;0.30;;
15555;SDS011;7879;48.660;9.116;2023-03-01T08:34:07;0.40;;;0.40;;
15555;SDS011;7879;48.660;9.116;2023-03-01T08:36:37;0.30;;;0.30;;
15555;SDS011;7879;48.660;9.116;2023-03-01T08:39:06;0.30;;;0.30;;
15555;SDS011;7879;48.660;9.116;2023-03-01T08:41:34;0.30;;;0.30;;
15555;SDS011;7879;48.660;9.116;2023-03-01T08:44:01;0.30;;;0.30;;
15555;SDS011;7879;48.660;9.116;2023-03-01T08:46:32;0.30;;;0.30;;
15555;SDS011;7879;48.660;9.116;2023-03-01T08:49:07;0.30;;;0.30;;
15555;SDS011;7879;48.660;9.116;2023-03-01T08:51:35;0.20;;;0.20;;
15555;SDS011;7879;48.660;9.116;2023-03-01T08:54:05;0.30;;;0.30;;
15555;SDS011;7879;48.660;9.116;2023-03-01T08:56:37;0.22;;;0.22;;
15555;SDS011;7879;48.660;9.116;2023-03-01T08:59:04;0.30;;;0.30;;
15555;SDS011;7879;48.660;9.116;2023-03-01T09:01:31;0.40;;;0.40;;
15555;SDS011;7879;48.660;9.116;2023-03-01T09:03:58;0.30;;;0.30;;
15555;SDS011;7879;48.660;9.116;2023-03-01T09:06:25;0.30;;;0.30;;
15555;SDS011;7879;48.660;9.116;2023-03-01T09:08:52;0.30;;;0.30;;
15555;SDS011;7879;48.660;9.116;2023-03-01T09:11:20;0.30;;;0.30;;
15555;SDS011;7879;48.660;9.116;2023-03-01T09:13:47;0.30;;;0.30;;
15555;SDS011;7879;48.660;9.116;2023-03-01T09:16:15;0.20;;;0.20;;
15555;SDS011;7879;48.660;9.116;2023-03-01T09:18:44;0.20;;;0.20;;
15555;SDS011;7879;48.660;9.116;2023-03-01T09:21:12;0.27;;;0.27;;
15555;SDS011;7879;48.660;9.116;2023-03-01T09:23:42;0.30;;;0.30;;
15555;SDS011;7879;48.660;9.116;2023-03-01T09:26:18;0.30;;;0.30;;
15555;SDS011;7879;48.660;9.116;2023-03-01T09:28:52;0.30;;;0.30;;
15555;SDS011;7879;48.660;9.116;2023-03-01T09:31:20;0.20;;;0.20;;
15555;SDS011;7879;48.660;9.116;2023-03-01T09:33:49;0.20;;;0.20;;
15555;SDS011;7879;48.660;9.116;2023-03-01T09:36:19;0.30;;;0.30;;
15555;SDS011;7879;48.660;9.116;2023-03-01T09:38:48;0.30;;;0.30;;
15555;SDS011;7879;48.660;9.116;2023-03-01T09:44:12;0.30;;;0.30;;
15555;SDS011;7879;48.660;9.116;2023-03-01T09:46:58;0.20;;;0.20;;
15555;SDS011;7879;48.660;9.116;2023-03-01T09:49:29;0.20;;;0.20;;
15555;SDS011;7879;48.660;9.116;2023-03-01T09:52:01;0.10;;;0.10;;
15555;SDS011;7879;48.660;9.116;2023-03-01T09:54:37;0.10;;;0.10;;
15555;SDS011;7879;48.660;9.116;2023-03-01T09:59:37;0.10;;;0.10;;
15555;SDS011;7879;48.660;9.116;2023-03-01T10:02:30;0.10;;;0.10;;
15555;SDS011;7879;48.660;9.116;2023-03-01T10:11:19;0.10;;;0.10;;
15555;SDS011;7879;48.660;9.116;2023-03-01T10:14:01;0.10;;;0.10;;
15555;SDS011;7879;48.660;9.116;2023-03-01T10:16:57;0.10;;;0.10;;
15555;SDS011;7879;48.660;9.116;2023-03-01T10:19:41;0.10;;;0.10;;
15555;SDS011;7879;48.660;9.116;2023-03-01T10:24:41;0.10;;;0.10;;
15555;SDS011;7879;48.660;9.116;2023-03-01T10:32:14;0.10;;;0.10;;
15555;SDS011;7879;48.660;9.116;2023-03-01T10:34:41;0.10;;;0.10;;
15555;SDS011;7879;48.660;9.116;2023-03-01T10:37:18;0.10;;;0.10;;
15555;SDS011;7879;48.660;9.116;2023-03-01T10:40:05;0.10;;;0.10;;
15555;SDS011;7879;48.660;9.116;2023-03-01T10:42:46;0.08;;;0.08;;
15555;SDS011;7879;48.660;9.116;2023-03-01T10:48:04;0.00;;;0.00;;
15555;SDS011;7879;48.660;9.116;2023-03-01T10:50:32;0.00;;;0.00;;
15555;SDS011;7879;48.660;9.116;2023-03-01T10:53:02;0.00;;;0.00;;
15555;SDS011;7879;48.660;9.116;2023-03-01T10:55:34;0.00;;;0.00;;
15555;SDS011;7879;48.660;9.116;2023-03-01T10:58:16;0.00;;;0.00;;
15555;SDS011;7879;48.660;9.116;2023-03-01T11:00:48;0.10;;;0.10;;
15555;SDS011;7879;48.660;9.116;2023-03-01T11:03:22;0.00;;;0.00;;
15555;SDS011;7879;48.660;9.116;2023-03-01T11:05:56;0.00;;;0.00;;
15555;SDS011;7879;48.660;9.116;2023-03-01T11:08:35;0.10;;;0.10;;
15555;SDS011;7879;48.660;9.116;2023-03-01T11:11:18;0.10;;;0.10;;
15555;SDS011;7879;48.660;9.116;2023-03-01T11:14:32;0.05;;;0.05;;
15555;SDS011;7879;48.660;9.116;2023-03-01T11:17:03;0.10;;;0.10;;
15555;SDS011;7879;48.660;9.116;2023-03-01T11:20:06;0.10;;;0.10;;
15555;SDS011;7879;48.660;9.116;2023-03-01T11:22:47;0.10;;;0.10;;
15555;SDS011;7879;48.660;9.116;2023-03-01T11:25:27;0.00;;;0.00;;
15555;SDS011;7879;48.660;9.116;2023-03-01T11:27:59;0.00;;;0.00;;
15555;SDS011;7879;48.660;9.116;2023-03-01T11:30:29;0.00;;;0.00;;
15555;SDS011;7879;48.660;9.116;2023-03-01T11:36:07;0.00;;;0.00;;
15555;SDS011;7879;48.660;9.116;2023-03-01T11:39:02;0.00;;;0.00;;
15555;SDS011;7879;48.660;9.116;2023-03-01T11:41:56;0.03;;;0.03;;
15555;SDS011;7879;48.660;9.116;2023-03-01T11:44:44;0.00;;;0.00;;
15555;SDS011;7879;48.660;9.116;2023-03-01T12:03:57;0.00;;;0.00;;
15555;SDS011;7879;48.660;9.116;2023-03-01T12:09:26;0.00;;;0.00;;
15555;SDS011;7879;48.660;9.116;2023-03-01T12:15:33;0.00;;;0.00;;
15555;SDS011;7879;48.660;9.116;2023-03-01T12:21:19;0.00;;;0.00;;
15555;SDS011;7879;48.660;9.116;2023-03-01T12:26:45;0.00;;;0.00;;
15555;SDS011;7879;48.660;9.116;2023-03-01T12:34:37;0.10;;;0.10;;
15555;SDS011;7879;48.660;9.116;2023-03-01T12:37:19;0.10;;;0.10;;
15555;SDS011;7879;48.660;9.116;2023-03-01T12:39:56;0.10;;;0.10;;
15555;SDS011;7879;48.660;9.116;2023-03-01T12:43:02;0.20;;;0.20;;
15555;SDS011;7879;48.660;9.116;2023-03-01T12:45:59;0.10;;;0.10;;
15555;SDS011;7879;48.660;9.116;2023-03-01T12:51:39;0.10;;;0.10;;
15555;SDS011;7879;48.660;9.116;2023-03-01T12:54:14;0.20;;;0.20;;
15555;SDS011;7879;48.660;9.116;2023-03-01T12:56:42;0.20;;;0.20;;
15555;SDS011;7879;48.660;9.116;2023-03-01T12:59:30;0.10;;;0.10;;
15555;SDS011;7879;48.660;9.116;2023-03-01T13:02:06;0.20;;;0.20;;
15555;SDS011;7879;48.660;9.116;2023-03-01T13:04:50;0.20;;;0.20;;
15555;SDS011;7879;48.660;9.116;2023-03-01T13:10:22;0.20;;;0.20;;
15555;SDS011;7879;48.660;9.116;2023-03-01T13:13:12;0.30;;;0.30;;
15555;SDS011;7879;48.660;9.116;2023-03-01T13:15:45;0.20;;;0.20;;
15555;SDS011;7879;48.660;9.116;2023-03-01T13:20:48;0.20;;;0.20;;
15555;SDS011;7879;48.660;9.116;2023-03-01T13:44:24;0.20;;;0.20;;
15555;SDS011;7879;48.660;9.116;2023-03-01T13:49:42;0.20;;;0.20;;
15555;SDS011;7879;48.660;9.116;2023-03-01T13:55:13;0.22;;;0.22;;
15555;SDS011;7879;48.660;9.116;2023-03-01T13:57:49;0.20;;;0.20;;
15555;SDS011;7879;48.660;9.116;2023-03-01T14:03:27;0.20;;;0.20;;
15555;SDS011;7879;48.660;9.116;2023-03-01T14:08:46;0.20;;;0.20;;
15555;SDS011;7879;48.660;9.116;2023-03-01T14:17:15;0.17;;;0.17;;
15555;SDS011;7879;48.660;9.116;2023-03-01T14:19:45;0.20;;;0.20;;
15555;SDS011;7879;48.660;9.116;2023-03-01T14:22:23;0.20;;;0.20;;
15555;SDS011;7879;48.660;9.116;2023-03-01T14:24:56;0.20;;;0.20;;
15555;SDS011;7879;48.660;9.116;2023-03-01T14:27:27;0.20;;;0.20;;
15555;SDS011;7879;48.660;9.116;2023-03-01T14:30:00;0.20;;;0.20;;
15555;SDS011;7879;48.660;9.116;2023-03-01T14:32:36;0.20;;;0.20;;
15555;SDS011;7879;48.660;9.116;2023-03-01T14:35:02;0.20;;;0.20;;
15555;SDS011;7879;48.660;9.116;2023-03-01T14:37:45;0.20;;;0.20;;
15555;SDS011;7879;48.660;9.116;2023-03-01T14:40:19;0.20;;;0.20;;
15555;SDS011;7879;48.660;9.116;2023-03-01T14:42:49;0.20;;;0.20;;
15555;SDS011;7879;48.660;9.116;2023-03-01T14:45:16;0.30;;;0.30;;
15555;SDS011;7879;48.660;9.116;2023-03-01T14:47:44;0.20;;;0.20;;
15555;SDS011;7879;48.660;9.116;2023-03-01T14:52:56;0.20;;;0.20;;
15555;SDS011;7879;48.660;9.116;2023-03-01T14:55:38;0.30;;;0.30;;
15555;SDS011;7879;48.660;9.116;2023-03-01T14:58:14;0.20;;;0.20;;
15555;SDS011;7879;48.660;9.116;2023-03-01T15:01:05;0.25;;;0.25;;
15555;SDS011;7879;48.660;9.116;2023-03-01T15:03:41;0.20;;;0.20;;
15555;SDS011;7879;48.660;9.116;2023-03-01T15:06:10;0.30;;;0.30;;
15555;SDS011;7879;48.660;9.116;2023-03-01T15:08:42;0.20;;;0.20;;
15555;SDS011;7879;48.660;9.116;2023-03-01T15:13:40;0.30;;;0.30;;
15555;SDS011;7879;48.660;9.116;2023-03-01T15:16:10;0.20;;;0.20;;
15555;SDS011;7879;48.660;9.116;2023-03-01T15:19:05;0.20;;;0.20;;
15555;SDS011;7879;48.660;9.116;2023-03-01T15:21:33;0.20;;;0.20;;
15555;SDS011;7879;48.660;9.116;2023-03-01T15:26:55;0.20;;;0.20;;
15555;SDS011;7879;48.660;9.116;2023-03-01T15:29:28;0.30;;;0.30;;
15555;SDS011;7879;48.660;9.116;2023-03-01T15:32:01;0.20;;;0.20;;
15555;SDS011;7879;48.660;9.116;2023-03-01T15:34:33;0.20;;;0.20;;
15555;SDS011;7879;48.660;9.116;2023-03-01T15:37:04;0.20;;;0.20;;
15555;SDS011;7879;48.660;9.116;2023-03-01T15:39:39;0.20;;;0.20;;
15555;SDS011;7879;48.660;9.116;2023-03-01T15:42:13;0.30;;;0.30;;
15555;SDS011;7879;48.660;9.116;2023-03-01T15:47:46;0.30;;;0.30;;
15555;SDS011;7879;48.660;9.116;2023-03-01T15:50:18;0.20;;;0.20;;
15555;SDS011;7879;48.660;9.116;2023-03-01T15:52:49;0.20;;;0.20;;
15555;SDS011;7879;48.660;9.116;2023-03-01T15:55:18;0.30;;;0.30;;
15555;SDS011;7879;48.660;9.116;2023-03-01T15:57:57;0.22;;;0.22;;
15555;SDS011;7879;48.660;9.116;2023-03-01T16:00:49;0.30;;;0.30;;
15555;SDS011;7879;48.660;9.116;2023-03-01T16:03:27;0.20;;;0.20;;
15555;SDS011;7879;48.660;9.116;2023-03-01T16:05:55;0.20;;;0.20;;
15555;SDS011;7879;48.660;9.116;2023-03-01T16:08:22;0.20;;;0.20;;
15555;SDS011;7879;48.660;9.116;2023-03-01T16:10:49;0.20;;;0.20;;
15555;SDS011;7879;48.660;9.116;2023-03-01T16:13:17;0.30;;;0.30;;
15555;SDS011;7879;48.660;9.116;2023-03-01T16:15:45;0.20;;;0.20;;
15555;SDS011;7879;48.660;9.116;2023-03-01T16:18:12;0.20;;;0.20;;
15555;SDS011;7879;48.660;9.116;2023-03-01T16:20:39;0.30;;;0.30;;
15555;SDS011;7879;48.660;9.116;2023-03-01T16:23:07;0.20;;;0.20;;
15555;SDS011;7879;48.660;9.116;2023-03-01T16:25:37;0.20;;;0.20;;
15555;SDS011;7879;48.660;9.116;2023-03-01T16:28:04;0.30;;;0.30;;
15555;SDS011;7879;48.660;9.116;2023-03-01T16:30:35;0.20;;;0.20;;
15555;SDS011;7879;48.660;9.116;2023-03-01T16:33:03;0.20;;;0.20;;
15555;SDS011;7879;48.660;9.116;2023-03-01T16:35:49;0.30;;;0.30;;
15555;SDS011;7879;48.660;9.116;2023-03-01T16:38:16;0.30;;;0.30;;
15555;SDS011;7879;48.660;9.116;2023-03-01T16:40:46;0.20;;;0.20;;
15555;SDS011;7879;48.660;9.116;2023-03-01T16:43:14;0.20;;;0.20;;
15555;SDS011;7879;48.660;9.116;2023-03-01T16:45:41;0.30;;;0.30;;
15555;SDS011;7879;48.660;9.116;2023-03-01T16:48:11;0.30;;;0.30;;
15555;SDS011;7879;48.660;9.116;2023-03-01T16:50:38;0.20;;;0.20;;
15555;SDS011;7879;48.660;9.116;2023-03-01T16:53:05;0.30;;;0.30;;
15555;SDS011;7879;48.660;9.116;2023-03-01T16:55:32;0.30;;;0.30;;
15555;SDS011;7879;48.660;9.116;2023-03-01T16:58:00;0.20;;;0.20;;
15555;SDS011;7879;48.660;9.116;2023-03-01T17:00:27;0.20;;;0.20;;
15555;SDS011;7879;48.660;9.116;2023-03-01T17:02:54;0.30;;;0.30;;
15555;SDS011;7879;48.660;9.116;2023-03-01T17:05:21;0.30;;;0.30;;
15555;SDS011;7879;48.660;9.116;2023-03-01T17:07:50;0.30;;;0.30;;
15555;SDS011;7879;48.660;9.116;2023-03-01T17:10:17;0.30;;;0.30;;
15555;SDS011;7879;48.660;9.116;2023-03-01T17:12:44;0.20;;;0.20;;
15555;SDS011;7879;48.660;9.116;2023-03-01T17:15:14;0.30;;;0.30;;
15555;SDS011;7879;48.660;9.116;2023-03-01T17:17:41;0.30;;;0.30;;
15555;SDS011;7879;48.660;9.116;2023-03-01T17:20:08;0.30;;;0.30;;
15555;SDS011;7879;48.660;9.116;2023-03-01T17:22:35;0.20;;;0.20;;
15555;SDS011;7879;48.660;9.116;2023-03-01T17:25:02;0.20;;;0.20;;
15555;SDS011;7879;48.660;9.116;2023-03-01T17:27:30;0.22;;;0.22;;